createdAt,value
2023-03-03T00:00:57.546Z,29.10
2023-03-03T00:03:27.285Z,27.30
2023-03-03T00:05:54.385Z,29.80
2023-03-03T00:08:21.963Z,30.20
2023-03-03T00:10:49.519Z,23.45
2023-03-03T00:13:22.088Z,27.97
2023-03-03T00:15:49.025Z,29.90
2023-03-03T00:18:24.797Z,28.65
2023-03-03T00:21:02.750Z,29.55
2023-03-03T00:23:43.447Z,28.45
2023-03-03T00:26:36.811Z,29.63
2023-03-03T00:29:39.591Z,31.27
2023-03-03T00:32:12.454Z,27.73
2023-03-03T00:34:39.379Z,28.23
2023-03-03T00:37:23.619Z,31.52
2023-03-03T00:39:50.461Z,31.10
2023-03-03T00:42:19.004Z,30.75
2023-03-03T00:44:57.116Z,29.65
2023-03-03T00:47:31.161Z,28.77
2023-03-03T00:50:07.730Z,28.20
2023-03-03T00:52:46.042Z,30.33
2023-03-03T00:55:13.098Z,26.40
2023-03-03T00:57:39.826Z,28.35
2023-03-03T01:00:10.407Z,26.85
2023-03-03T01:02:37.181Z,26.27
2023-03-03T01:05:04.500Z,33.73
2023-03-03T01:07:31.586Z,22.45
2023-03-03T01:09:58.386Z,27.20
2023-03-03T01:12:25.173Z,27.88
2023-03-03T01:14:53.168Z,24.67
2023-03-03T01:17:19.936Z,29.10
2023-03-03T01:19:46.576Z,32.50
2023-03-03T01:22:13.421Z,26.60
2023-03-03T01:24:40.169Z,26.05
2023-03-03T01:27:06.920Z,32.55
2023-03-03T01:29:35.078Z,26.10
2023-03-03T01:32:02.017Z,26.02
2023-03-03T01:34:28.764Z,25.63
2023-03-03T01:36:55.657Z,30.85
2023-03-03T01:39:22.655Z,26.05
2023-03-03T01:41:49.317Z,25.70
2023-03-03T01:44:18.086Z,29.88
2023-03-03T01:46:55.312Z,27.58
2023-03-03T01:49:28.888Z,27.50
2023-03-03T01:52:00.454Z,28.83
2023-03-03T01:54:35.075Z,32.33
2023-03-03T01:57:06.461Z,29.27
2023-03-03T01:59:37.755Z,27.33
2023-03-03T02:02:05.506Z,33.67
2023-03-03T02:04:34.156Z,34.55
2023-03-03T02:07:07.304Z,35.07
2023-03-03T02:09:46.736Z,29.98
2023-03-03T02:12:17.897Z,30.65
2023-03-03T02:14:44.918Z,30.48
2023-03-03T02:17:12.002Z,34.13
2023-03-03T02:20:04.569Z,31.30
2023-03-03T02:22:53.885Z,37.45
2023-03-03T02:25:31.890Z,27.95
2023-03-03T02:27:58.924Z,34.50
2023-03-03T02:30:25.923Z,31.17
2023-03-03T02:32:52.689Z,34.63
2023-03-03T02:35:35.725Z,32.05
2023-03-03T02:38:15.436Z,36.92
2023-03-03T02:40:50.455Z,31.42
2023-03-03T02:43:20.817Z,27.60
2023-03-03T02:45:47.779Z,34.75
2023-03-03T02:48:14.761Z,27.35
2023-03-03T02:50:42.050Z,32.97
2023-03-03T02:53:10.203Z,29.98
2023-03-03T02:55:36.996Z,27.88
2023-03-03T02:58:04.170Z,31.63
2023-03-03T03:00:32.614Z,35.25
2023-03-03T03:03:00.667Z,36.13
2023-03-03T03:05:27.611Z,32.83
2023-03-03T03:07:54.618Z,29.25
2023-03-03T03:10:21.398Z,39.50
2023-03-03T03:12:48.307Z,40.78
2023-03-03T03:15:15.986Z,33.60
2023-03-03T03:17:43.606Z,38.45
2023-03-03T03:20:11.999Z,32.33
2023-03-03T03:22:39.083Z,32.57
2023-03-03T03:25:07.308Z,31.65
2023-03-03T03:27:34.315Z,36.55
2023-03-03T03:30:01.369Z,34.10
2023-03-03T03:32:29.774Z,29.77
2023-03-03T03:34:56.957Z,31.80
2023-03-03T03:37:23.740Z,31.67
2023-03-03T03:39:50.599Z,29.95
2023-03-03T03:42:19.601Z,32.22
2023-03-03T03:44:47.258Z,30.88
2023-03-03T03:47:15.151Z,26.88
2023-03-03T03:49:42.102Z,31.20
2023-03-03T03:52:08.828Z,30.50
2023-03-03T03:54:35.802Z,26.45
2023-03-03T03:57:03.035Z,29.30
2023-03-03T03:59:30.376Z,22.60
2023-03-03T04:01:57.503Z,23.20
2023-03-03T04:04:25.635Z,24.02
2023-03-03T04:06:53.098Z,24.40
2023-03-03T04:09:19.914Z,22.35
2023-03-03T04:11:47.488Z,20.75
2023-03-03T04:14:15.009Z,24.55
2023-03-03T04:16:42.487Z,25.88
2023-03-03T04:19:10.048Z,27.05
2023-03-03T04:21:38.394Z,24.67
2023-03-03T04:24:05.586Z,22.03
2023-03-03T04:26:33.500Z,21.15
2023-03-03T04:29:02.653Z,25.33
2023-03-03T04:31:29.526Z,25.95
2023-03-03T04:33:56.627Z,25.88
2023-03-03T04:36:24.568Z,26.17
2023-03-03T04:38:51.936Z,28.48
2023-03-03T04:41:18.945Z,27.25
2023-03-03T04:43:46.258Z,26.13
2023-03-03T04:46:13.874Z,24.73
2023-03-03T04:48:40.752Z,28.30
2023-03-03T04:51:07.719Z,24.63
2023-03-03T04:53:38.302Z,23.65
2023-03-03T04:56:06.835Z,21.63
2023-03-03T04:58:34.695Z,23.60
2023-03-03T05:01:01.966Z,21.33
2023-03-03T05:03:31.171Z,22.38
2023-03-03T05:05:59.305Z,27.05
2023-03-03T05:08:26.064Z,24.40
2023-03-03T05:10:54.319Z,24.63
2023-03-03T05:13:21.017Z,26.73
2023-03-03T05:15:55.561Z,27.75
2023-03-03T05:18:23.663Z,26.15
2023-03-03T05:20:52.086Z,24.88
2023-03-03T05:23:19.479Z,26.90
2023-03-03T05:25:48.067Z,22.52
2023-03-03T05:28:15.149Z,25.38
2023-03-03T05:30:41.829Z,22.98
2023-03-03T05:33:12.894Z,25.30
2023-03-03T05:35:39.661Z,25.25
2023-03-03T05:38:06.335Z,31.57
2023-03-03T05:40:33.988Z,25.95
2023-03-03T05:43:00.783Z,26.42
2023-03-03T05:45:27.527Z,31.48
2023-03-03T05:47:54.594Z,25.17
2023-03-03T05:50:22.473Z,24.03
2023-03-03T05:52:52.830Z,23.23
2023-03-03T05:55:20.244Z,30.40
2023-03-03T05:57:47.070Z,22.85
2023-03-03T06:00:14.940Z,24.40
2023-03-03T06:02:42.575Z,22.90
2023-03-03T06:05:09.940Z,24.48
2023-03-03T06:07:39.104Z,26.15
2023-03-03T06:10:06.583Z,21.80
2023-03-03T06:12:38.995Z,27.23
2023-03-03T06:15:07.425Z,23.80
2023-03-03T06:17:35.960Z,23.30
2023-03-03T06:20:04.228Z,30.08
2023-03-03T06:22:31.432Z,26.10
2023-03-03T06:24:58.138Z,23.55
2023-03-03T06:27:24.888Z,30.50
2023-03-03T06:29:51.528Z,24.45
2023-03-03T06:32:18.501Z,28.92
2023-03-03T06:34:45.332Z,22.98
2023-03-03T06:37:11.990Z,28.67
2023-03-03T06:39:38.666Z,25.67
2023-03-03T06:42:05.304Z,27.05
2023-03-03T06:44:32.035Z,25.45
2023-03-03T06:46:59.046Z,32.65
2023-03-03T06:49:25.838Z,26.85
2023-03-03T06:51:54.872Z,23.38
2023-03-03T06:54:30.344Z,25.15
2023-03-03T06:57:16.311Z,29.45
2023-03-03T06:59:42.980Z,23.15
2023-03-03T07:02:17.114Z,26.60
2023-03-03T07:04:47.233Z,28.20
2023-03-03T07:07:18.677Z,21.63
2023-03-03T07:09:46.973Z,22.45
2023-03-03T07:12:16.767Z,23.17
2023-03-03T07:14:48.353Z,22.55
2023-03-03T07:17:18.660Z,23.87
2023-03-03T07:19:46.988Z,21.00
2023-03-03T07:22:18.954Z,22.48
2023-03-03T07:24:49.917Z,20.50
2023-03-03T07:27:22.513Z,32.05
2023-03-03T07:29:54.428Z,20.13
2023-03-03T07:32:45.645Z,21.88
2023-03-03T07:35:31.066Z,17.85
2023-03-03T07:37:57.807Z,25.33
2023-03-03T07:40:33.846Z,19.92
2023-03-03T07:43:01.806Z,19.37
2023-03-03T07:45:37.853Z,19.25
2023-03-03T07:48:19.573Z,21.50
2023-03-03T07:50:46.437Z,20.23
2023-03-03T07:53:24.404Z,17.10
2023-03-03T07:55:51.187Z,16.60
2023-03-03T07:58:24.035Z,18.15
2023-03-03T08:01:09.704Z,16.33
2023-03-03T08:03:37.038Z,20.20
2023-03-03T08:06:26.418Z,27.23
2023-03-03T08:08:53.072Z,21.93
2023-03-03T08:11:19.697Z,20.33
2023-03-03T08:13:46.495Z,18.90
2023-03-03T08:16:13.064Z,18.98
2023-03-03T08:18:42.618Z,19.45
2023-03-03T08:21:14.739Z,18.33
2023-03-03T08:23:42.074Z,22.10
2023-03-03T08:26:09.661Z,22.40
2023-03-03T08:28:36.390Z,18.58
2023-03-03T08:31:16.793Z,20.95
2023-03-03T08:33:46.100Z,21.20
2023-03-03T08:36:18.573Z,16.90
2023-03-03T08:38:45.529Z,15.65
2023-03-03T08:41:12.941Z,16.60
2023-03-03T08:43:40.162Z,14.85
2023-03-03T08:46:08.984Z,12.50
2023-03-03T08:48:56.030Z,15.82
2023-03-03T08:51:35.030Z,15.40
2023-03-03T08:54:01.770Z,11.82
2023-03-03T08:56:28.922Z,12.65
2023-03-03T08:59:03.314Z,11.47
2023-03-03T09:01:33.283Z,10.52
2023-03-03T09:04:00.060Z,12.15
2023-03-03T09:06:26.762Z,12.35
2023-03-03T09:08:54.974Z,12.98
2023-03-03T09:11:27.649Z,13.23
2023-03-03T09:14:21.265Z,12.55
2023-03-03T09:16:51.855Z,9.60
2023-03-03T09:19:29.854Z,11.85
2023-03-03T09:22:02.289Z,9.07
2023-03-03T09:24:31.143Z,10.20
2023-03-03T09:26:59.416Z,10.48
2023-03-03T09:29:31.331Z,8.93
2023-03-03T09:32:02.300Z,8.40
2023-03-03T09:34:41.341Z,9.57
2023-03-03T09:37:20.668Z,9.93
2023-03-03T09:39:50.465Z,7.07
2023-03-03T09:42:56.957Z,9.65
2023-03-03T09:45:38.730Z,6.93
2023-03-03T09:48:31.181Z,7.68
2023-03-03T09:51:30.564Z,7.97
2023-03-03T09:54:09.443Z,6.65
2023-03-03T09:56:44.964Z,8.77
2023-03-03T09:59:41.021Z,9.25
2023-03-03T10:02:25.686Z,9.80
2023-03-03T10:05:30.862Z,7.60
2023-03-03T10:08:21.913Z,7.38
2023-03-03T10:11:13.626Z,6.18
2023-03-03T10:14:04.098Z,7.10
2023-03-03T10:16:52.940Z,7.35
2023-03-03T10:19:30.353Z,7.63
2023-03-03T10:22:20.728Z,7.05
2023-03-03T10:25:16.336Z,7.47
2023-03-03T10:28:20.023Z,6.22
2023-03-03T10:31:19.833Z,6.28
2023-03-03T10:34:00.568Z,7.00
2023-03-03T10:36:37.950Z,7.18
2023-03-03T10:39:29.665Z,6.95
2023-03-03T10:42:10.493Z,7.07
2023-03-03T10:44:59.130Z,6.53
2023-03-03T10:47:38.121Z,8.17
2023-03-03T10:50:41.288Z,6.40
2023-03-03T10:53:29.954Z,6.88
2023-03-03T10:56:22.994Z,8.68
2023-03-03T10:59:10.998Z,7.10
2023-03-03T11:01:49.325Z,7.53
2023-03-03T11:04:45.863Z,7.47
2023-03-03T11:07:35.730Z,8.13
2023-03-03T11:10:20.982Z,7.68
2023-03-03T11:13:13.756Z,6.88
2023-03-03T11:15:50.075Z,8.63
2023-03-03T11:18:36.430Z,6.60
2023-03-03T11:21:15.956Z,7.47
2023-03-03T11:23:53.656Z,6.40
2023-03-03T11:26:44.653Z,9.07
2023-03-03T11:29:42.813Z,8.17
2023-03-03T11:32:36.934Z,8.48
2023-03-03T11:35:24.275Z,7.28
2023-03-03T11:37:53.823Z,6.47
2023-03-03T11:40:26.430Z,8.75
2023-03-03T11:43:12.555Z,6.87
2023-03-03T11:45:49.619Z,7.70
2023-03-03T11:48:31.091Z,11.23
2023-03-03T11:51:03.559Z,13.30
2023-03-03T11:53:55.157Z,8.82
2023-03-03T11:56:39.612Z,5.33
2023-03-03T11:59:26.606Z,7.05
2023-03-03T12:01:57.255Z,5.43
2023-03-03T12:04:34.662Z,6.43
2023-03-03T12:07:28.963Z,7.35
2023-03-03T12:10:03.834Z,6.23
2023-03-03T12:12:40.863Z,8.25
2023-03-03T12:15:19.853Z,10.18
2023-03-03T12:18:12.398Z,10.30
2023-03-03T12:21:10.375Z,9.82
2023-03-03T12:23:59.118Z,6.53
2023-03-03T12:26:34.701Z,7.82
2023-03-03T12:29:25.305Z,7.65
2023-03-03T12:32:08.329Z,5.15
2023-03-03T12:35:04.064Z,4.85
2023-03-03T12:37:42.303Z,5.57
2023-03-03T12:40:16.593Z,5.20
2023-03-03T12:43:01.450Z,4.70
2023-03-03T12:45:46.925Z,5.60
2023-03-03T12:48:40.134Z,3.45
2023-03-03T12:51:30.873Z,4.37
2023-03-03T12:54:29.199Z,4.65
2023-03-03T12:57:34.044Z,5.15
2023-03-03T13:00:07.068Z,5.18
2023-03-03T13:02:43.155Z,5.00
2023-03-03T13:05:09.751Z,6.07
2023-03-03T13:08:08.855Z,7.38
2023-03-03T13:10:46.509Z,5.93
2023-03-03T13:13:43.830Z,6.53
2023-03-03T13:16:20.678Z,6.55
2023-03-03T13:19:11.764Z,5.23
2023-03-03T13:22:08.435Z,7.97
2023-03-03T13:25:02.481Z,6.75
2023-03-03T13:27:41.301Z,6.00
2023-03-03T13:30:08.372Z,6.45
2023-03-03T13:32:43.394Z,6.73
2023-03-03T13:35:38.716Z,6.90
2023-03-03T13:38:11.052Z,6.05
2023-03-03T13:40:50.159Z,6.53
2023-03-03T13:43:26.937Z,6.75
2023-03-03T13:46:08.823Z,4.57
2023-03-03T13:48:57.607Z,6.38
2023-03-03T13:51:27.315Z,3.92
2023-03-03T13:54:09.308Z,5.43
2023-03-03T13:56:47.984Z,6.68
2023-03-03T13:59:36.298Z,5.93
2023-03-03T14:02:15.579Z,5.75
2023-03-03T14:05:00.335Z,6.90
2023-03-03T14:07:54.296Z,6.45
2023-03-03T14:10:25.442Z,5.88
2023-03-03T14:13:15.759Z,4.83
2023-03-03T14:16:08.627Z,4.20
2023-03-03T14:18:49.176Z,4.78
2023-03-03T14:21:52.932Z,4.43
2023-03-03T14:24:22.176Z,3.95
2023-03-03T14:26:51.148Z,4.50
2023-03-03T14:29:35.849Z,3.88
2023-03-03T14:32:21.727Z,5.95
2023-03-03T14:35:13.448Z,5.85
2023-03-03T14:37:47.440Z,4.28
2023-03-03T14:40:21.585Z,5.87
2023-03-03T14:43:33.712Z,4.43
2023-03-03T14:46:27.708Z,6.60
2023-03-03T14:48:57.258Z,4.22
2023-03-03T14:51:42.160Z,5.57
2023-03-03T14:54:16.327Z,4.33
2023-03-03T14:57:05.942Z,7.55
2023-03-03T14:59:32.651Z,6.55
2023-03-03T15:02:14.600Z,4.13
2023-03-03T15:04:41.876Z,4.68
2023-03-03T15:07:28.320Z,8.07
2023-03-03T15:09:54.978Z,5.75
2023-03-03T15:12:35.213Z,6.55
2023-03-03T15:15:11.298Z,5.05
2023-03-03T15:18:13.596Z,5.70
2023-03-03T15:20:51.883Z,6.57
2023-03-03T15:23:36.322Z,5.75
2023-03-03T15:26:29.873Z,5.82
2023-03-03T15:29:28.338Z,4.18
2023-03-03T15:32:13.102Z,6.18
2023-03-03T15:34:49.326Z,5.87
2023-03-03T15:37:30.039Z,4.47
2023-03-03T15:40:03.134Z,6.95
2023-03-03T15:42:39.390Z,7.45
2023-03-03T15:45:33.262Z,5.07
2023-03-03T15:48:13.867Z,4.40
2023-03-03T15:50:51.617Z,4.22
2023-03-03T15:53:50.397Z,5.35
2023-03-03T15:56:42.526Z,4.85
2023-03-03T15:59:30.859Z,3.78
2023-03-03T16:02:16.736Z,6.17
2023-03-03T16:05:12.856Z,5.72
2023-03-03T16:07:57.740Z,6.55
2023-03-03T16:10:52.490Z,8.45
2023-03-03T16:13:31.095Z,5.32
2023-03-03T16:16:26.904Z,8.20
2023-03-03T16:19:06.016Z,10.80
2023-03-03T16:21:35.686Z,6.63
2023-03-03T16:24:22.996Z,7.07
2023-03-03T16:27:33.994Z,7.43
2023-03-03T16:30:16.254Z,6.40
2023-03-03T16:33:04.838Z,6.75
2023-03-03T16:35:39.845Z,6.57
2023-03-03T16:38:31.604Z,8.23
2023-03-03T16:41:05.658Z,7.38
2023-03-03T16:44:02.608Z,10.47
2023-03-03T16:46:42.641Z,9.98
2023-03-03T16:49:33.414Z,10.02
2023-03-03T16:52:15.378Z,6.57
2023-03-03T16:54:57.986Z,6.35
2023-03-03T16:57:47.212Z,7.40
2023-03-03T17:00:55.509Z,6.07
2023-03-03T17:03:34.475Z,6.18
2023-03-03T17:06:33.795Z,4.43
2023-03-03T17:09:31.734Z,4.35
2023-03-03T17:12:23.469Z,6.77
2023-03-03T17:15:03.151Z,7.32
2023-03-03T17:17:45.087Z,7.28
2023-03-03T17:20:31.114Z,3.85
2023-03-03T17:23:17.748Z,5.90
2023-03-03T17:25:52.989Z,8.17
2023-03-03T17:28:46.943Z,6.10
2023-03-03T17:31:55.580Z,4.35
2023-03-03T17:34:43.679Z,5.03
2023-03-03T17:37:31.420Z,6.32
2023-03-03T17:40:05.495Z,4.67
2023-03-03T17:43:06.337Z,6.45
2023-03-03T17:45:37.842Z,9.32
2023-03-03T17:48:39.641Z,7.43
2023-03-03T17:51:37.523Z,6.07
2023-03-03T17:54:20.325Z,7.17
2023-03-03T17:57:02.413Z,6.55
2023-03-03T17:59:56.972Z,6.50
2023-03-03T18:02:42.474Z,9.98
2023-03-03T18:05:15.397Z,9.02
2023-03-03T18:07:55.845Z,8.97
2023-03-03T18:10:46.724Z,9.07
2023-03-03T18:13:31.594Z,14.15
2023-03-03T18:16:32.342Z,12.55
2023-03-03T18:19:17.679Z,9.95
2023-03-03T18:22:14.153Z,9.47
2023-03-03T18:24:49.905Z,11.32
2023-03-03T18:27:25.710Z,11.00
2023-03-03T18:30:10.976Z,11.50
2023-03-03T18:33:03.531Z,15.85
2023-03-03T18:35:41.675Z,13.60
2023-03-03T18:38:17.451Z,10.75
2023-03-03T18:40:53.455Z,10.55
2023-03-03T18:43:42.950Z,12.55
2023-03-03T18:46:31.904Z,11.00
2023-03-03T18:49:05.445Z,9.43
2023-03-03T18:51:35.583Z,16.80
2023-03-03T18:54:31.028Z,16.65
2023-03-03T18:56:57.922Z,15.90
2023-03-03T18:59:30.774Z,14.52
2023-03-03T19:02:12.730Z,12.60
2023-03-03T19:04:43.553Z,12.90
2023-03-03T19:07:26.799Z,10.77
2023-03-03T19:10:04.120Z,19.45
2023-03-03T19:12:52.161Z,12.10
2023-03-03T19:15:35.715Z,16.60
2023-03-03T19:18:20.332Z,18.75
2023-03-03T19:21:26.651Z,14.23
2023-03-03T19:24:03.402Z,11.38
2023-03-03T19:26:54.655Z,14.38
2023-03-03T19:29:47.478Z,20.40
2023-03-03T19:32:57.264Z,14.00
2023-03-03T19:35:45.330Z,23.20
2023-03-03T19:38:41.679Z,20.65
2023-03-03T19:41:27.050Z,14.65
2023-03-03T19:44:12.933Z,13.37
2023-03-03T19:47:05.263Z,15.32
2023-03-03T19:49:58.250Z,13.55
2023-03-03T19:52:25.013Z,14.38
2023-03-03T19:55:07.666Z,22.45
2023-03-03T19:58:17.646Z,21.20
2023-03-03T20:00:56.757Z,11.93
2023-03-03T20:03:37.913Z,14.18
2023-03-03T20:06:32.453Z,13.52
2023-03-03T20:09:26.680Z,11.35
2023-03-03T20:12:01.717Z,8.47
2023-03-03T20:14:54.312Z,13.85
2023-03-03T20:17:30.633Z,14.32
2023-03-03T20:20:35.060Z,20.85
2023-03-03T20:23:02.748Z,10.50
2023-03-03T20:26:09.323Z,10.40
2023-03-03T20:29:16.356Z,12.73
2023-03-03T20:32:06.859Z,13.55
2023-03-03T20:34:52.882Z,14.43
2023-03-03T20:37:45.538Z,14.90
2023-03-03T20:40:29.360Z,14.03
2023-03-03T20:43:17.872Z,16.08
2023-03-03T20:46:07.848Z,14.13
2023-03-03T20:48:46.933Z,19.50
2023-03-03T20:51:51.331Z,8.48
2023-03-03T20:54:30.940Z,13.07
2023-03-03T20:57:09.872Z,15.57
2023-03-03T20:59:43.825Z,22.63
2023-03-03T21:02:34.613Z,16.35
2023-03-03T21:05:17.145Z,12.70
2023-03-03T21:07:54.758Z,22.10
2023-03-03T21:10:27.699Z,20.75
2023-03-03T21:12:56.137Z,17.02
2023-03-03T21:15:28.165Z,14.50
2023-03-03T21:17:56.064Z,14.93
2023-03-03T21:20:27.632Z,15.83
2023-03-03T21:22:55.748Z,18.30
2023-03-03T21:25:40.723Z,13.98
2023-03-03T21:28:33.802Z,20.67
2023-03-03T21:31:08.803Z,14.48
2023-03-03T21:33:52.952Z,11.60
2023-03-03T21:36:26.162Z,17.95
2023-03-03T21:38:54.253Z,19.33
2023-03-03T21:41:21.079Z,13.82
2023-03-03T21:43:51.162Z,18.55
2023-03-03T21:46:23.452Z,9.23
2023-03-03T21:48:51.540Z,10.52
2023-03-03T21:51:20.332Z,14.77
2023-03-03T21:53:47.650Z,14.15
2023-03-03T21:56:14.405Z,14.30
2023-03-03T21:58:42.966Z,16.57
2023-03-03T22:01:10.050Z,17.85
2023-03-03T22:03:36.737Z,9.93
2023-03-03T22:06:03.574Z,12.20
2023-03-03T22:08:30.320Z,15.40
2023-03-03T22:10:57.226Z,13.90
2023-03-03T22:13:25.221Z,19.73
2023-03-03T22:15:53.037Z,15.63
2023-03-03T22:18:20.194Z,13.23
2023-03-03T22:20:47.949Z,17.25
2023-03-03T22:23:15.323Z,18.53
2023-03-03T22:25:42.527Z,14.80
2023-03-03T22:28:09.562Z,10.85
2023-03-03T22:30:36.854Z,14.20
2023-03-03T22:33:03.932Z,20.15
2023-03-03T22:35:31.046Z,19.20
2023-03-03T22:37:57.866Z,13.95
2023-03-03T22:40:24.849Z,17.55
2023-03-03T22:42:58.241Z,15.18
2023-03-03T22:45:24.960Z,14.27
2023-03-03T22:47:51.688Z,17.30
2023-03-03T22:50:19.485Z,13.73
2023-03-03T22:52:46.243Z,14.27
2023-03-03T22:55:13.115Z,17.10
2023-03-03T22:57:39.881Z,13.13
2023-03-03T23:00:11.678Z,11.27
2023-03-03T23:02:38.570Z,11.48
2023-03-03T23:05:08.496Z,16.92
2023-03-03T23:07:35.734Z,11.93
2023-03-03T23:10:03.217Z,14.90
2023-03-03T23:12:30.120Z,12.80
2023-03-03T23:14:57.050Z,11.57
2023-03-03T23:17:23.721Z,10.93
2023-03-03T23:19:51.020Z,16.75
2023-03-03T23:22:18.470Z,11.25
2023-03-03T23:24:45.113Z,10.53
2023-03-03T23:27:12.047Z,10.82
2023-03-03T23:29:39.327Z,10.57
2023-03-03T23:32:06.491Z,10.45
2023-03-03T23:34:33.419Z,10.30
2023-03-03T23:37:00.105Z,9.43
2023-03-03T23:39:27.203Z,11.48
2023-03-03T23:41:53.961Z,12.68
2023-03-03T23:44:20.740Z,17.05
2023-03-03T23:46:47.520Z,8.82
2023-03-03T23:49:14.200Z,12.03
2023-03-03T23:51:40.936Z,10.57
2023-03-03T23:54:08.157Z,10.88
2023-03-03T23:56:34.915Z,8.75
2023-03-03T23:59:01.683Z,10.50
